createdAt,value
2018-09-27T00:01:55.918Z,15.25
2018-09-27T00:04:22.898Z,15.25
2018-09-27T00:06:49.820Z,15.44
2018-09-27T00:09:16.760Z,15.56
2018-09-27T00:11:43.808Z,15.44
2018-09-27T00:14:10.758Z,15.56
2018-09-27T00:16:37.703Z,15.44
2018-09-27T00:19:04.647Z,15.56
2018-09-27T00:21:31.575Z,15.38
2018-09-27T00:23:58.515Z,15.31
2018-09-27T00:26:25.458Z,15.63
2018-09-27T00:28:52.427Z,15.56
2018-09-27T00:31:19.333Z,15.69
2018-09-27T00:33:46.318Z,15.56
2018-09-27T00:36:13.276Z,15.31
2018-09-27T00:38:40.203Z,15.44
2018-09-27T00:41:07.142Z,15.38
2018-09-27T00:43:34.070Z,15.75
2018-09-27T00:46:00.992Z,15.44
2018-09-27T00:48:27.932Z,15.69
2018-09-27T00:50:54.892Z,15.44
2018-09-27T00:53:21.814Z,15.31
2018-09-27T00:55:48.745Z,15.38
2018-09-27T00:58:15.690Z,15.56
2018-09-27T01:00:42.656Z,15.75
2018-09-27T01:03:09.568Z,15.56
2018-09-27T01:05:37.033Z,15.63
2018-09-27T01:08:04.224Z,15.38
2018-09-27T01:10:31.122Z,15.63
2018-09-27T01:12:58.020Z,15.63
2018-09-27T01:15:24.954Z,15.50
2018-09-27T01:17:52.758Z,15.50
2018-09-27T01:20:19.635Z,15.56
2018-09-27T01:22:46.593Z,15.63
2018-09-27T01:25:13.538Z,15.44
2018-09-27T01:27:40.477Z,15.44
2018-09-27T01:30:07.623Z,15.44
2018-09-27T01:32:34.506Z,15.44
2018-09-27T01:35:01.415Z,15.38
2018-09-27T01:37:28.291Z,15.38
2018-09-27T01:39:55.199Z,15.63
2018-09-27T01:42:22.060Z,15.63
2018-09-27T01:44:48.991Z,15.38
2018-09-27T01:47:15.957Z,15.50
2018-09-27T01:49:42.896Z,15.38
2018-09-27T01:52:09.793Z,15.38
2018-09-27T01:54:36.684Z,15.38
2018-09-27T01:57:03.596Z,15.44
2018-09-27T01:59:40.534Z,15.31
2018-09-27T02:02:07.438Z,15.38
2018-09-27T02:04:34.410Z,15.38
2018-09-27T02:07:01.324Z,15.50
2018-09-27T02:09:28.253Z,15.44
2018-09-27T02:11:55.134Z,15.50
2018-09-27T02:14:22.015Z,15.56
2018-09-27T02:16:48.912Z,15.31
2018-09-27T02:19:16.098Z,15.56
2018-09-27T02:21:43.087Z,15.63
2018-09-27T02:24:10.027Z,15.44
2018-09-27T02:26:36.981Z,15.50
2018-09-27T02:29:03.864Z,15.50
2018-09-27T02:31:30.782Z,15.69
2018-09-27T02:33:57.696Z,15.38
2018-09-27T02:36:24.626Z,15.31
2018-09-27T02:38:51.592Z,15.38
2018-09-27T02:41:18.510Z,15.25
2018-09-27T02:43:45.416Z,15.50
2018-09-27T02:46:12.307Z,15.44
2018-09-27T02:48:39.185Z,15.25
2018-09-27T02:51:06.118Z,15.31
2018-09-27T02:53:33.014Z,15.44
2018-09-27T02:55:59.961Z,15.50
2018-09-27T02:58:26.978Z,15.31
2018-09-27T03:00:53.891Z,15.31
2018-09-27T03:03:20.803Z,15.31
2018-09-27T03:05:47.704Z,15.44
2018-09-27T03:08:14.615Z,15.44
2018-09-27T03:10:42.129Z,15.25
2018-09-27T03:13:09.050Z,15.31
2018-09-27T03:15:35.942Z,15.25
2018-09-27T03:18:02.877Z,15.31
2018-09-27T03:20:29.781Z,15.44
2018-09-27T03:22:56.675Z,15.38
2018-09-27T03:25:23.571Z,15.38
2018-09-27T03:27:50.505Z,15.31
2018-09-27T03:30:17.401Z,15.25
2018-09-27T03:32:44.332Z,15.25
2018-09-27T03:35:11.250Z,15.31
2018-09-27T03:37:38.172Z,15.25
2018-09-27T03:40:05.130Z,15.44
2018-09-27T03:42:32.012Z,15.31
2018-09-27T03:44:58.926Z,15.25
2018-09-27T03:47:25.846Z,15.19
2018-09-27T03:49:52.722Z,15.44
2018-09-27T03:52:19.613Z,15.38
2018-09-27T03:54:46.516Z,15.56
2018-09-27T03:57:13.413Z,15.38
2018-09-27T03:59:40.316Z,15.50
2018-09-27T04:02:07.233Z,15.75
2018-09-27T04:04:34.125Z,15.50
2018-09-27T04:07:01.054Z,15.38
2018-09-27T04:09:27.952Z,15.25
2018-09-27T04:11:54.849Z,15.38
2018-09-27T04:14:21.743Z,15.50
2018-09-27T04:16:48.728Z,15.31
2018-09-27T04:19:15.677Z,15.31
2018-09-27T04:21:42.612Z,15.56
2018-09-27T04:24:09.565Z,15.50
2018-09-27T04:26:36.451Z,15.25
2018-09-27T04:29:03.398Z,15.44
2018-09-27T04:31:30.716Z,15.56
2018-09-27T04:33:57.667Z,15.56
2018-09-27T04:36:24.583Z,15.44
2018-09-27T04:38:51.609Z,15.31
2018-09-27T04:41:18.552Z,15.63
2018-09-27T04:43:45.570Z,15.56
2018-09-27T04:46:12.512Z,15.56
2018-09-27T04:48:39.416Z,15.44
2018-09-27T04:51:06.358Z,15.44
2018-09-27T04:53:33.310Z,15.63
2018-09-27T04:56:00.212Z,15.44
2018-09-27T04:58:27.108Z,15.38
2018-09-27T05:00:53.992Z,15.25
2018-09-27T05:03:21.658Z,15.31
2018-09-27T05:05:48.591Z,15.19
2018-09-27T05:08:15.550Z,15.63
2018-09-27T05:10:42.515Z,15.38
2018-09-27T05:13:09.399Z,15.56
2018-09-27T05:15:36.384Z,15.44
2018-09-27T05:18:03.280Z,15.38
2018-09-27T05:20:30.252Z,15.31
2018-09-27T05:22:57.133Z,15.44
2018-09-27T05:25:24.100Z,15.38
2018-09-27T05:27:51.101Z,15.44
2018-09-27T05:30:18.018Z,15.63
2018-09-27T05:32:45.772Z,15.44
2018-09-27T05:35:12.690Z,15.25
2018-09-27T05:37:39.650Z,15.56
2018-09-27T05:40:06.595Z,15.25
2018-09-27T05:42:33.554Z,15.31
2018-09-27T05:45:00.491Z,15.63
2018-09-27T05:47:27.399Z,15.75
2018-09-27T05:49:54.339Z,15.69
2018-09-27T05:52:21.446Z,15.56
2018-09-27T05:54:48.399Z,15.56
2018-09-27T05:57:15.288Z,15.56
2018-09-27T05:59:42.210Z,15.44
2018-09-27T06:02:09.436Z,15.56
2018-09-27T06:04:36.358Z,15.44
2018-09-27T06:07:03.422Z,15.56
2018-09-27T06:09:30.471Z,15.56
2018-09-27T06:11:57.370Z,15.81
2018-09-27T06:14:24.315Z,15.56
2018-09-27T06:16:51.292Z,15.56
2018-09-27T06:19:18.311Z,15.56
2018-09-27T06:21:45.211Z,15.38
2018-09-27T06:24:12.110Z,15.50
2018-09-27T06:26:39.057Z,15.63
2018-09-27T06:29:05.999Z,15.56
2018-09-27T06:31:32.927Z,15.56
2018-09-27T06:33:59.887Z,15.56
2018-09-27T06:36:26.860Z,15.69
2018-09-27T06:38:53.816Z,15.69
2018-09-27T06:41:20.835Z,15.75
2018-09-27T06:43:47.775Z,15.69
2018-09-27T06:46:14.725Z,15.69
2018-09-27T06:48:41.764Z,15.81
2018-09-27T06:51:08.687Z,15.81
2018-09-27T06:53:35.974Z,15.69
2018-09-27T06:56:03.094Z,15.88
2018-09-27T07:03:24.339Z,15.81
2018-09-27T07:05:51.260Z,15.88
2018-09-27T07:08:18.231Z,16.12
2018-09-27T07:10:45.248Z,16.06
2018-09-27T07:13:12.158Z,15.69
2018-09-27T07:15:39.144Z,16.00
2018-09-27T07:18:06.101Z,15.94
2018-09-27T07:20:33.112Z,16.06
2018-09-27T07:23:00.020Z,16.25
2018-09-27T07:25:26.973Z,15.94
2018-09-27T07:27:53.886Z,15.81
2018-09-27T07:30:20.829Z,16.00
2018-09-27T07:32:47.747Z,15.94
2018-09-27T07:35:14.729Z,16.06
2018-09-27T07:37:41.680Z,16.37
2018-09-27T07:40:08.627Z,16.00
2018-09-27T07:42:35.558Z,16.06
2018-09-27T07:45:02.584Z,16.19
2018-09-27T07:47:29.547Z,16.25
2018-09-27T07:49:56.488Z,16.25
2018-09-27T07:52:23.422Z,16.31
2018-09-27T07:54:50.440Z,16.12
2018-09-27T07:57:17.453Z,16.31
2018-09-27T07:59:44.440Z,16.31
2018-09-27T08:02:11.374Z,16.50
2018-09-27T08:04:38.292Z,16.44
2018-09-27T08:07:05.358Z,16.44
2018-09-27T08:09:32.308Z,16.56
2018-09-27T08:11:59.387Z,16.62
2018-09-27T08:14:26.273Z,16.62
2018-09-27T08:16:53.232Z,16.75
2018-09-27T08:19:20.243Z,16.87
2018-09-27T08:21:47.215Z,16.94
2018-09-27T08:24:14.354Z,17.00
2018-09-27T08:26:41.299Z,16.94
2018-09-27T08:29:08.298Z,16.94
2018-09-27T08:31:35.378Z,17.06
2018-09-27T08:34:02.789Z,17.06
2018-09-27T08:36:29.811Z,17.06
2018-09-27T08:38:56.834Z,17.19
2018-09-27T08:41:23.847Z,17.19
2018-09-27T08:43:50.974Z,17.19
2018-09-27T08:46:18.001Z,17.19
2018-09-27T08:48:45.059Z,17.37
2018-09-27T08:51:12.012Z,17.25
2018-09-27T08:53:39.053Z,17.37
2018-09-27T08:56:06.621Z,17.50
2018-09-27T08:58:33.648Z,17.50
2018-09-27T09:01:00.647Z,17.50
2018-09-27T09:03:27.650Z,17.56
2018-09-27T09:05:54.616Z,17.87
2018-09-27T09:08:21.598Z,17.87
2018-09-27T09:10:48.626Z,17.81
2018-09-27T09:13:16.279Z,17.69
2018-09-27T09:15:43.275Z,17.81
2018-09-27T09:18:10.244Z,17.81
2018-09-27T09:20:37.228Z,17.75
2018-09-27T09:23:04.202Z,17.81
2018-09-27T09:25:31.313Z,17.75
2018-09-27T09:27:58.367Z,17.87
2018-09-27T09:30:25.309Z,17.87
2018-09-27T09:32:52.379Z,17.75
2018-09-27T09:35:19.345Z,17.69
2018-09-27T09:37:46.323Z,18.00
2018-09-27T09:40:13.357Z,18.06
2018-09-27T09:42:40.427Z,17.94
2018-09-27T09:45:07.408Z,18.06
2018-09-27T09:47:34.404Z,18.12
2018-09-27T09:50:01.461Z,18.06
2018-09-27T09:52:28.352Z,18.06
2018-09-27T09:54:55.294Z,18.44
2018-09-27T09:57:22.238Z,18.31
2018-09-27T09:59:49.292Z,18.25
2018-09-27T10:02:16.368Z,18.31
2018-09-27T10:04:43.306Z,18.25
2018-09-27T10:07:10.344Z,18.25
2018-09-27T10:09:37.314Z,18.44
2018-09-27T10:12:05.124Z,18.37
2018-09-27T10:14:32.186Z,18.37
2018-09-27T10:16:59.130Z,18.50
2018-09-27T10:19:26.171Z,18.44
2018-09-27T10:21:53.279Z,18.69
2018-09-27T10:24:20.141Z,18.62
2018-09-27T10:26:47.168Z,18.81
2018-09-27T10:29:14.133Z,18.75
2018-09-27T10:31:41.084Z,18.75
2018-09-27T10:34:08.090Z,18.87
2018-09-27T10:36:35.023Z,19.00
2018-09-27T10:39:02.055Z,18.87
2018-09-27T10:41:28.976Z,18.87
2018-09-27T10:43:56.533Z,19.12
2018-09-27T10:46:23.584Z,19.00
2018-09-27T10:48:50.540Z,19.31
2018-09-27T10:51:17.520Z,19.31
2018-09-27T10:53:44.400Z,19.19
2018-09-27T10:56:11.374Z,19.12
2018-09-27T10:58:38.346Z,19.12
2018-09-27T11:01:05.362Z,19.25
2018-09-27T11:03:32.290Z,19.25
2018-09-27T11:05:59.394Z,19.44
2018-09-27T11:08:26.362Z,19.37
2018-09-27T11:10:53.466Z,19.62
2018-09-27T11:13:20.331Z,19.69
2018-09-27T11:15:47.281Z,19.56
2018-09-27T11:18:14.246Z,19.62
2018-09-27T11:20:41.241Z,19.62
2018-09-27T11:23:08.264Z,19.56
2018-09-27T11:25:35.201Z,19.75
2018-09-27T11:28:02.187Z,19.62
2018-09-27T11:30:29.944Z,19.56
2018-09-27T11:32:57.127Z,19.50
2018-09-27T11:35:24.017Z,19.56
2018-09-27T11:37:50.938Z,19.56
2018-09-27T11:40:17.902Z,19.62
2018-09-27T11:42:44.922Z,19.50
2018-09-27T11:45:11.888Z,19.56
2018-09-27T11:47:38.847Z,19.50
2018-09-27T11:50:06.023Z,19.44
2018-09-27T11:52:32.805Z,19.69
2018-09-27T11:54:59.767Z,19.62
2018-09-27T11:57:27.865Z,19.56
2018-09-27T11:59:54.999Z,19.56
2018-09-27T12:02:22.016Z,19.62
2018-09-27T12:04:48.950Z,19.69
2018-09-27T12:12:10.602Z,19.56
2018-09-27T12:14:37.621Z,19.69
2018-09-27T12:17:04.554Z,19.69
2018-09-27T12:19:31.555Z,19.62
2018-09-27T12:21:58.707Z,19.56
2018-09-27T12:24:25.764Z,19.56
2018-09-27T12:26:52.774Z,19.56
2018-09-27T12:29:19.710Z,19.69
2018-09-27T12:31:46.654Z,19.69
2018-09-27T12:34:13.583Z,19.69
2018-09-27T12:36:40.617Z,19.69
2018-09-27T12:39:09.367Z,19.81
2018-09-27T12:41:37.233Z,19.75
2018-09-27T12:44:04.232Z,19.75
2018-09-27T12:46:31.322Z,19.81
2018-09-27T12:48:58.440Z,19.81
2018-09-27T12:51:25.439Z,20.00
2018-09-27T12:53:52.542Z,20.06
2018-09-27T12:56:19.486Z,20.12
2018-09-27T12:58:47.364Z,20.37
2018-09-27T13:01:14.379Z,20.19
2018-09-27T13:03:42.151Z,20.19
2018-09-27T13:06:09.089Z,20.50
2018-09-27T13:08:36.158Z,20.50
2018-09-27T13:11:03.020Z,20.62
2018-09-27T13:13:30.149Z,20.69
2018-09-27T13:15:56.951Z,20.56
2018-09-27T13:18:23.902Z,20.44
2018-09-27T13:20:51.598Z,20.62
2018-09-27T13:23:19.254Z,20.62
2018-09-27T13:25:46.271Z,20.62
2018-09-27T13:28:13.197Z,20.44
2018-09-27T13:30:40.174Z,20.44
2018-09-27T13:33:07.213Z,20.31
2018-09-27T13:35:35.379Z,20.37
2018-09-27T13:38:02.322Z,20.69
2018-09-27T13:40:29.288Z,20.62
2018-09-27T13:42:56.286Z,20.44
2018-09-27T13:45:23.179Z,20.37
2018-09-27T13:47:50.134Z,20.37
2018-09-27T13:50:17.059Z,20.25
2018-09-27T13:52:44.591Z,20.19
2018-09-27T13:55:12.279Z,20.75
2018-09-27T13:57:39.241Z,20.62
2018-09-27T14:00:06.648Z,20.44
2018-09-27T14:02:33.693Z,20.44
2018-09-27T14:05:00.665Z,20.44
2018-09-27T14:07:27.623Z,20.31
2018-09-27T14:09:54.621Z,20.81
2018-09-27T14:12:21.597Z,20.69
2018-09-27T14:14:48.586Z,20.69
2018-09-27T14:17:15.580Z,20.62
2018-09-27T14:19:42.693Z,20.50
2018-09-27T14:22:09.697Z,20.44
2018-09-27T14:24:36.675Z,20.44
2018-09-27T14:27:03.660Z,20.31
2018-09-27T14:29:30.668Z,20.31
2018-09-27T14:31:58.285Z,20.37
2018-09-27T14:34:25.900Z,20.50
2018-09-27T14:36:52.928Z,20.37
2018-09-27T14:39:19.912Z,20.31
2018-09-27T14:41:46.935Z,20.37
2018-09-27T14:44:13.879Z,20.56
2018-09-27T14:46:41.851Z,20.75
2018-09-27T14:49:08.906Z,20.81
2018-09-27T14:51:35.868Z,20.56
2018-09-27T14:54:02.824Z,20.56
2018-09-27T14:56:29.745Z,20.50
2018-09-27T14:58:56.784Z,20.50
2018-09-27T15:01:23.681Z,20.69
2018-09-27T15:03:50.628Z,21.12
2018-09-27T15:06:17.589Z,20.94
2018-09-27T15:08:44.542Z,20.94
2018-09-27T15:11:11.496Z,20.88
2018-09-27T15:13:38.443Z,20.75
2018-09-27T15:16:05.470Z,20.81
2018-09-27T15:18:32.444Z,20.75
2018-09-27T15:20:59.451Z,20.75
2018-09-27T15:23:27.315Z,20.75
2018-09-27T15:25:54.305Z,20.75
2018-09-27T15:28:21.275Z,20.94
2018-09-27T15:30:48.363Z,21.06
2018-09-27T15:33:15.223Z,20.94
2018-09-27T15:35:42.172Z,20.75
2018-09-27T15:38:09.124Z,21.12
2018-09-27T15:40:36.092Z,20.88
2018-09-27T15:43:03.097Z,20.81
2018-09-27T15:45:30.057Z,21.19
2018-09-27T15:47:57.017Z,21.25
2018-09-27T15:50:25.281Z,21.31
2018-09-27T15:52:52.271Z,21.25
2018-09-27T15:55:19.223Z,21.12
2018-09-27T15:57:46.205Z,21.19
2018-09-27T16:00:13.835Z,21.00
2018-09-27T16:02:40.825Z,20.81
2018-09-27T16:05:07.759Z,20.69
2018-09-27T16:07:35.362Z,20.75
2018-09-27T16:10:02.363Z,20.69
2018-09-27T16:12:29.310Z,20.62
2018-09-27T16:14:56.322Z,20.56
2018-09-27T16:17:23.253Z,20.50
2018-09-27T16:19:50.225Z,20.44
2018-09-27T16:22:17.359Z,20.44
2018-09-27T16:24:44.329Z,20.37
2018-09-27T16:27:11.311Z,20.44
2018-09-27T16:29:38.247Z,20.31
2018-09-27T16:32:05.220Z,20.37
2018-09-27T16:34:32.145Z,20.31
2018-09-27T16:36:59.080Z,20.25
2018-09-27T16:39:26.787Z,20.25
2018-09-27T16:41:53.738Z,20.19
2018-09-27T16:44:20.665Z,20.06
2018-09-27T16:46:47.661Z,19.94
2018-09-27T16:49:14.629Z,19.87
2018-09-27T16:51:41.572Z,19.94
2018-09-27T16:54:08.502Z,19.94
2018-09-27T16:56:35.455Z,20.19
2018-09-27T16:59:02.352Z,20.37
2018-09-27T17:01:29.258Z,20.37
2018-09-27T17:03:56.283Z,20.75
2018-09-27T17:06:23.217Z,21.06
2018-09-27T17:08:50.165Z,21.12
2018-09-27T17:11:17.629Z,21.00
2018-09-27T17:13:44.588Z,20.75
2018-09-27T17:16:11.562Z,20.25
2018-09-27T17:18:38.576Z,20.00
2018-09-27T17:21:05.532Z,19.81
2018-09-27T17:23:32.540Z,19.56
2018-09-27T17:25:59.402Z,19.50
2018-09-27T17:28:26.360Z,19.44
2018-09-27T17:30:53.314Z,19.44
2018-09-27T17:33:20.283Z,19.56
2018-09-27T17:35:47.266Z,19.44
2018-09-27T17:38:14.291Z,19.44
2018-09-27T17:40:41.327Z,19.37
2018-09-27T17:43:08.236Z,19.31
2018-09-27T17:45:35.175Z,19.25
2018-09-27T17:48:02.140Z,19.19
2018-09-27T17:50:29.059Z,19.12
2018-09-27T17:52:55.997Z,19.06
2018-09-27T17:55:22.975Z,19.12
2018-09-27T17:57:49.899Z,19.19
2018-09-27T18:00:17.878Z,19.19
2018-09-27T18:02:44.912Z,19.12
2018-09-27T18:05:18.984Z,19.06
2018-09-27T18:07:38.862Z,19.56
2018-09-27T18:10:05.790Z,19.75
2018-09-27T18:12:32.730Z,20.31
2018-09-27T18:14:59.665Z,20.37
2018-09-27T18:17:26.647Z,20.12
2018-09-27T18:19:53.563Z,19.87
2018-09-27T18:22:20.473Z,20.19
2018-09-27T18:24:47.421Z,20.12
2018-09-27T18:27:14.364Z,20.06
2018-09-27T18:29:41.289Z,20.00
2018-09-27T18:32:08.255Z,19.75
2018-09-27T18:34:35.188Z,20.06
2018-09-27T18:37:02.086Z,19.69
2018-09-27T18:39:28.980Z,19.50
2018-09-27T18:41:56.459Z,19.44
2018-09-27T18:44:23.402Z,19.31
2018-09-27T18:47:00.950Z,19.19
2018-09-27T18:49:27.934Z,19.37
2018-09-27T18:51:54.899Z,19.37
2018-09-27T18:54:21.858Z,19.37
2018-09-27T18:56:48.799Z,19.19
2018-09-27T18:59:15.719Z,19.19
2018-09-27T19:01:42.661Z,19.06
2018-09-27T19:04:09.586Z,19.44
2018-09-27T19:06:36.536Z,19.25
2018-09-27T19:09:04.841Z,19.00
2018-09-27T19:11:31.861Z,19.06
2018-09-27T19:13:58.804Z,18.87
2018-09-27T19:16:25.797Z,18.81
2018-09-27T19:18:52.795Z,18.81
2018-09-27T19:21:19.703Z,18.75
2018-09-27T19:23:46.689Z,18.69
2018-09-27T19:26:13.660Z,18.62
2018-09-27T19:28:40.570Z,18.56
2018-09-27T19:31:07.704Z,18.56
2018-09-27T19:33:34.626Z,18.44
2018-09-27T19:36:01.579Z,18.37
2018-09-27T19:38:28.557Z,18.37
2018-09-27T19:40:55.600Z,18.31
2018-09-27T19:43:22.589Z,18.25
2018-09-27T19:45:50.491Z,18.19
2018-09-27T19:48:17.501Z,18.19
2018-09-27T19:50:44.727Z,18.12
2018-09-27T19:53:11.757Z,18.12
2018-09-27T20:00:30.568Z,17.94
2018-09-27T20:02:57.560Z,17.94
2018-09-27T20:05:31.734Z,17.87
2018-09-27T20:07:58.724Z,17.87
2018-09-27T20:10:25.742Z,17.87
2018-09-27T20:12:52.917Z,17.87
2018-09-27T20:15:19.855Z,17.75
2018-09-27T20:17:46.807Z,17.69
2018-09-27T20:20:13.740Z,17.62
2018-09-27T20:22:40.725Z,17.56
2018-09-27T20:25:07.714Z,17.56
2018-09-27T20:27:34.637Z,17.50
2018-09-27T20:30:01.557Z,17.44
2018-09-27T20:32:29.410Z,17.44
2018-09-27T20:34:56.483Z,17.31
2018-09-27T20:37:23.816Z,17.25
2018-09-27T20:39:50.711Z,17.25
2018-09-27T20:42:18.007Z,17.25
2018-09-27T20:44:44.976Z,17.19
2018-09-27T20:47:11.952Z,17.12
2018-09-27T20:49:38.905Z,17.12
2018-09-27T20:52:05.851Z,17.06
2018-09-27T20:54:32.775Z,17.06
2018-09-27T20:57:00.008Z,17.06
2018-09-27T20:59:26.991Z,16.94
2018-09-27T21:01:53.941Z,17.00
2018-09-27T21:04:21.023Z,16.94
2018-09-27T21:06:47.968Z,16.87
2018-09-27T21:09:14.952Z,16.87
2018-09-27T21:11:42.514Z,16.87
2018-09-27T21:14:09.930Z,16.81
2018-09-27T21:16:37.125Z,16.87
2018-09-27T21:19:04.207Z,16.87
2018-09-27T21:21:31.163Z,16.81
2018-09-27T21:23:58.121Z,16.75
2018-09-27T21:26:25.146Z,16.69
2018-09-27T21:28:52.117Z,16.69
2018-09-27T21:31:19.037Z,16.62
2018-09-27T21:33:45.964Z,16.56
2018-09-27T21:36:13.181Z,16.62
2018-09-27T21:38:40.143Z,16.56
2018-09-27T21:41:07.133Z,16.62
2018-09-27T21:43:34.092Z,16.56
2018-09-27T21:46:01.058Z,16.50
2018-09-27T21:48:28.009Z,16.62
2018-09-27T21:50:54.932Z,16.56
2018-09-27T21:53:21.895Z,16.50
2018-09-27T21:55:48.831Z,16.50
2018-09-27T21:58:15.772Z,16.44
2018-09-27T22:00:42.717Z,16.44
2018-09-27T22:03:09.704Z,16.37
2018-09-27T22:05:36.684Z,16.37
2018-09-27T22:08:03.719Z,16.44
2018-09-27T22:10:31.206Z,16.37
2018-09-27T22:12:58.146Z,16.31
2018-09-27T22:15:25.063Z,16.37
2018-09-27T22:17:52.037Z,16.37
2018-09-27T22:20:18.993Z,16.37
2018-09-27T22:22:45.951Z,16.37
2018-09-27T22:25:12.883Z,16.37
2018-09-27T22:27:39.827Z,16.37
2018-09-27T22:30:07.174Z,16.25
2018-09-27T22:32:34.103Z,16.31
2018-09-27T22:35:01.049Z,16.25
2018-09-27T22:37:28.101Z,16.19
2018-09-27T22:39:55.060Z,16.25
2018-09-27T22:42:21.985Z,16.19
2018-09-27T22:44:48.940Z,16.19
2018-09-27T22:47:15.832Z,16.12
2018-09-27T22:49:42.804Z,16.12
2018-09-27T22:52:09.740Z,16.12
2018-09-27T22:54:36.626Z,16.12
2018-09-27T22:57:03.629Z,16.06
2018-09-27T22:59:30.569Z,16.00
2018-09-27T23:01:57.470Z,16.00
2018-09-27T23:04:24.400Z,15.94
2018-09-27T23:06:51.257Z,15.94
2018-09-27T23:09:18.197Z,15.88
2018-09-27T23:11:45.123Z,15.81
2018-09-27T23:14:12.084Z,15.88
2018-09-27T23:19:52.031Z,15.81
2018-09-27T23:22:18.959Z,15.75
2018-09-27T23:24:45.845Z,15.69
2018-09-27T23:27:12.822Z,15.69
2018-09-27T23:29:39.777Z,15.75
2018-09-27T23:32:06.666Z,15.69
2018-09-27T23:34:33.933Z,15.56
2018-09-27T23:37:00.875Z,15.63
2018-09-27T23:39:27.799Z,15.50
2018-09-27T23:41:54.694Z,15.50
2018-09-27T23:44:21.588Z,15.44
2018-09-27T23:46:48.486Z,15.44
2018-09-27T23:49:15.358Z,15.44
2018-09-27T23:51:42.232Z,15.44
2018-09-27T23:54:09.130Z,15.44
2018-09-27T23:56:36.003Z,15.44
2018-09-27T23:59:02.914Z,15.38
